createdAt,value
2018-07-10T00:14:55.673Z,3.10
2018-07-10T00:29:59.439Z,3.43
2018-07-10T00:45:03.232Z,3.20
2018-07-10T01:00:08.150Z,2.77
2018-07-10T01:15:12.049Z,1.90
2018-07-10T01:30:15.892Z,2.80
2018-07-10T01:45:19.831Z,2.63
2018-07-10T02:00:34.500Z,4.10
2018-07-10T02:15:38.269Z,5.47
2018-07-10T02:30:42.226Z,2.83
2018-07-10T02:45:46.114Z,2.37
2018-07-10T03:00:50.027Z,4.00
2018-07-10T03:15:54.052Z,3.33
2018-07-10T03:30:58.662Z,5.80
2018-07-10T03:46:06.359Z,37.87
2018-07-10T04:01:11.236Z,7.10
2018-07-10T04:16:15.131Z,7.30
2018-07-10T04:31:29.405Z,5.90
2018-07-10T04:46:38.878Z,4.33
2018-07-10T05:01:42.765Z,5.77
2018-07-10T05:16:46.654Z,6.80
2018-07-10T05:31:51.487Z,9.27
2018-07-10T05:46:59.566Z,8.80
2018-07-10T06:02:03.361Z,11.00
2018-07-10T06:32:20.504Z,10.30
2018-07-10T06:47:30.001Z,8.83
2018-07-10T07:02:35.062Z,7.33
2018-07-10T07:17:40.785Z,15.33
2018-07-10T07:32:44.480Z,14.10
2018-07-10T07:47:48.403Z,17.87
2018-07-10T08:02:52.252Z,9.50
2018-07-10T08:17:56.695Z,10.10
2018-07-10T08:33:00.574Z,9.77
2018-07-10T08:48:04.700Z,10.70
2018-07-10T09:03:08.518Z,10.43
2018-07-10T09:18:12.398Z,12.63
2018-07-10T09:33:16.224Z,10.70
2018-07-10T09:48:20.160Z,11.20
2018-07-10T10:03:24.438Z,10.53
2018-07-10T10:18:28.289Z,9.80
2018-07-10T10:33:32.117Z,13.13
2018-07-10T10:48:35.987Z,13.80
2018-07-10T11:03:39.894Z,14.03
2018-07-10T11:19:01.336Z,11.20
2018-07-10T11:34:05.802Z,37.80
2018-07-10T11:49:19.108Z,13.87
2018-07-10T12:04:22.998Z,13.13
2018-07-10T12:19:26.810Z,13.73
2018-07-10T12:34:30.630Z,14.10
2018-07-10T12:49:35.526Z,15.63
2018-07-10T13:04:39.621Z,11.70
2018-07-10T13:19:43.476Z,11.03
2018-07-10T13:34:47.777Z,15.00
2018-07-10T13:49:52.157Z,12.93
2018-07-10T14:04:56.166Z,9.43
2018-07-10T14:20:00.152Z,11.53
2018-07-10T14:35:03.957Z,13.27
2018-07-10T14:50:07.767Z,18.00
2018-07-10T15:05:11.600Z,22.57
2018-07-10T15:20:15.432Z,23.93
2018-07-10T15:35:19.273Z,27.53
2018-07-10T15:50:27.129Z,35.57
2018-07-10T16:05:35.693Z,35.30
2018-07-10T16:20:42.326Z,34.37
2018-07-10T16:35:46.217Z,34.13
2018-07-10T16:51:09.209Z,30.33
2018-07-10T17:06:13.087Z,28.97
2018-07-10T17:21:16.977Z,33.97
2018-07-10T17:36:20.818Z,29.23
2018-07-10T17:51:24.688Z,30.60
2018-07-10T18:06:28.557Z,33.23
2018-07-10T18:21:33.341Z,44.13
2018-07-10T18:36:37.271Z,39.77
2018-07-10T18:51:42.142Z,38.60
2018-07-10T19:06:45.919Z,30.47
2018-07-10T19:21:57.729Z,29.20
2018-07-10T19:37:03.859Z,26.90
2018-07-10T19:52:07.753Z,35.20
2018-07-10T20:07:26.218Z,16.23
2018-07-10T20:22:41.515Z,18.43
2018-07-10T20:37:47.764Z,16.07
2018-07-10T20:52:56.850Z,15.47
2018-07-10T21:08:04.166Z,13.20
2018-07-10T21:23:26.886Z,14.07
2018-07-10T21:38:54.739Z,11.87
2018-07-10T21:53:58.653Z,10.13
2018-07-10T22:09:02.535Z,9.07
2018-07-10T22:24:06.370Z,7.73
2018-07-10T22:39:10.266Z,6.87
2018-07-10T22:54:14.172Z,6.33
2018-07-10T23:09:17.981Z,6.97
2018-07-10T23:24:21.858Z,8.33
2018-07-10T23:39:57.452Z,8.60
2018-07-10T23:55:01.415Z,12.03
